createdAt,value
2023-05-02T00:00:02.309Z,10.36
2023-05-02T00:02:08.832Z,10.36
2023-05-02T00:04:12.474Z,10.36
2023-05-02T00:06:17.305Z,10.36
2023-05-02T00:08:20.689Z,10.37
2023-05-02T00:10:24.216Z,10.37
2023-05-02T00:12:27.539Z,10.38
2023-05-02T00:14:31.196Z,10.36
2023-05-02T00:16:34.603Z,10.37
2023-05-02T00:18:38.178Z,10.37
2023-05-02T00:20:42.229Z,10.38
2023-05-02T00:22:47.017Z,10.38
2023-05-02T00:24:50.360Z,10.38
2023-05-02T00:26:53.714Z,10.39
2023-05-02T00:28:57.391Z,10.38
2023-05-02T00:31:00.748Z,10.37
2023-05-02T00:33:07.126Z,10.37
2023-05-02T00:35:11.135Z,10.36
2023-05-02T00:37:14.611Z,10.36
2023-05-02T00:39:19.354Z,10.36
2023-05-02T00:41:22.832Z,10.36
2023-05-02T00:43:26.277Z,10.35
2023-05-02T00:45:30.559Z,10.35
2023-05-02T00:47:34.517Z,10.37
2023-05-02T00:49:38.374Z,10.37
2023-05-02T00:51:42.076Z,10.37
2023-05-02T00:53:46.352Z,10.39
2023-05-02T00:55:51.204Z,10.40
2023-05-02T00:57:54.697Z,10.41
2023-05-02T00:59:58.926Z,10.41
2023-05-02T01:02:12.983Z,10.41
2023-05-02T01:04:28.518Z,10.40
2023-05-02T01:06:42.253Z,10.39
2023-05-02T01:08:52.088Z,10.36
2023-05-02T01:11:04.915Z,10.34
2023-05-02T01:13:13.395Z,10.29
2023-05-02T01:15:20.505Z,10.25
2023-05-02T01:17:28.123Z,10.20
2023-05-02T01:19:36.654Z,10.18
2023-05-02T01:21:41.656Z,10.14
2023-05-02T01:23:58.789Z,10.11
2023-05-02T01:26:16.226Z,10.08
2023-05-02T01:28:30.412Z,10.06
2023-05-02T01:30:40.032Z,10.03
2023-05-02T01:32:47.000Z,10.02
2023-05-02T01:34:52.463Z,10.01
2023-05-02T01:36:58.817Z,9.99
2023-05-02T01:39:04.117Z,9.98
2023-05-02T01:41:08.450Z,9.98
2023-05-02T01:43:13.813Z,9.95
2023-05-02T01:45:17.804Z,9.95
2023-05-02T01:47:24.312Z,9.94
2023-05-02T01:49:30.770Z,9.92
2023-05-02T01:51:36.577Z,9.87
2023-05-02T01:53:41.487Z,9.83
2023-05-02T01:55:47.033Z,9.80
2023-05-02T01:57:54.507Z,9.77
2023-05-02T01:59:59.543Z,9.76
2023-05-02T02:02:03.815Z,9.74
2023-05-02T02:04:11.494Z,9.74
2023-05-02T02:06:17.327Z,9.73
2023-05-02T02:08:20.955Z,9.72
2023-05-02T02:10:30.876Z,9.71
2023-05-02T02:12:42.961Z,9.70
2023-05-02T02:14:51.250Z,9.71
2023-05-02T02:16:57.832Z,9.71
2023-05-02T02:19:08.538Z,9.70
2023-05-02T02:21:19.649Z,9.71
2023-05-02T02:23:26.394Z,9.70
2023-05-02T02:25:30.901Z,9.70
2023-05-02T02:27:34.341Z,9.69
2023-05-02T02:29:37.785Z,9.70
2023-05-02T02:31:41.247Z,9.69
2023-05-02T02:33:45.395Z,9.68
2023-05-02T02:35:55.010Z,9.64
2023-05-02T02:38:09.792Z,9.59
2023-05-02T02:40:22.061Z,9.53
2023-05-02T02:42:35.306Z,9.46
2023-05-02T02:44:48.764Z,9.38
2023-05-02T02:47:02.625Z,9.31
2023-05-02T02:49:23.070Z,9.26
2023-05-02T02:51:32.907Z,9.20
2023-05-02T02:53:48.170Z,9.14
2023-05-02T02:56:04.176Z,9.09
2023-05-02T02:58:20.207Z,9.02
2023-05-02T03:00:26.164Z,8.96
2023-05-02T03:02:33.866Z,8.87
2023-05-02T03:04:42.082Z,8.79
2023-05-02T03:06:45.803Z,8.71
2023-05-02T03:08:50.736Z,8.64
2023-05-02T03:10:56.308Z,8.58
2023-05-02T03:12:59.701Z,8.49
2023-05-02T03:15:18.479Z,8.43
2023-05-02T03:17:23.320Z,8.39
2023-05-02T03:19:28.052Z,8.36
2023-05-02T03:21:33.283Z,8.32
2023-05-02T03:23:43.021Z,8.28
2023-05-02T03:25:48.378Z,8.19
2023-05-02T03:27:59.182Z,8.13
2023-05-02T03:30:02.782Z,8.06
2023-05-02T03:32:08.406Z,8.04
2023-05-02T03:34:13.849Z,8.00
2023-05-02T03:36:18.535Z,7.98
2023-05-02T03:38:21.997Z,7.97
2023-05-02T03:40:28.284Z,7.97
2023-05-02T03:42:40.027Z,7.96
2023-05-02T03:44:48.361Z,7.94
2023-05-02T03:46:51.910Z,7.90
2023-05-02T03:48:55.482Z,7.87
2023-05-02T03:50:58.851Z,7.84
2023-05-02T03:53:02.923Z,7.81
2023-05-02T03:55:15.551Z,7.78
2023-05-02T03:57:18.911Z,7.74
2023-05-02T03:59:23.714Z,7.71
2023-05-02T04:01:27.765Z,7.67
2023-05-02T04:03:32.847Z,7.63
2023-05-02T04:05:37.978Z,7.62
2023-05-02T04:07:41.721Z,7.59
2023-05-02T04:09:45.160Z,7.57
2023-05-02T04:11:49.606Z,7.56
2023-05-02T04:13:53.896Z,7.53
2023-05-02T04:15:59.330Z,7.51
2023-05-02T04:18:06.718Z,7.51
2023-05-02T04:20:12.835Z,7.48
2023-05-02T04:22:20.348Z,7.47
2023-05-02T04:24:29.005Z,7.46
2023-05-02T04:26:34.154Z,7.43
2023-05-02T04:28:42.977Z,7.41
2023-05-02T04:30:47.938Z,7.41
2023-05-02T04:32:53.104Z,7.41
2023-05-02T04:34:57.042Z,7.43
2023-05-02T04:37:02.176Z,7.43
2023-05-02T04:39:07.692Z,7.41
2023-05-02T04:41:14.365Z,7.39
2023-05-02T04:43:24.555Z,7.40
2023-05-02T04:45:33.714Z,7.39
2023-05-02T04:47:37.240Z,7.38
2023-05-02T04:49:43.024Z,7.39
2023-05-02T04:51:46.582Z,7.40
2023-05-02T04:53:51.350Z,7.43
2023-05-02T04:55:55.804Z,7.44
2023-05-02T04:57:59.712Z,7.45
2023-05-02T05:00:03.835Z,7.47
2023-05-02T05:02:09.272Z,7.47
2023-05-02T05:04:12.888Z,7.47
2023-05-02T05:06:17.856Z,7.47
2023-05-02T05:08:22.094Z,7.47
2023-05-02T05:10:25.561Z,7.47
2023-05-02T05:12:28.964Z,7.46
2023-05-02T05:14:32.527Z,7.44
2023-05-02T05:16:35.935Z,7.40
2023-05-02T05:18:41.472Z,7.38
2023-05-02T05:20:47.628Z,7.37
2023-05-02T05:22:52.397Z,7.34
2023-05-02T05:24:57.526Z,7.33
2023-05-02T05:27:05.519Z,7.31
2023-05-02T05:29:09.004Z,7.27
2023-05-02T05:31:17.346Z,7.25
2023-05-02T05:33:24.695Z,7.23
2023-05-02T05:35:28.407Z,7.23
2023-05-02T05:37:33.230Z,7.21
2023-05-02T05:39:39.566Z,7.22
2023-05-02T05:41:43.274Z,7.21
2023-05-02T05:43:48.562Z,7.18
2023-05-02T05:45:53.522Z,7.17
2023-05-02T05:47:57.195Z,7.18
2023-05-02T05:50:03.510Z,7.18
2023-05-02T05:52:08.352Z,7.19
2023-05-02T05:54:12.424Z,7.18
2023-05-02T05:56:18.329Z,7.16
2023-05-02T05:58:29.492Z,7.14
2023-05-02T06:00:35.244Z,7.13
2023-05-02T06:02:38.813Z,7.14
2023-05-02T06:04:42.867Z,7.15
2023-05-02T06:06:46.989Z,7.18
2023-05-02T06:08:50.395Z,7.21
2023-05-02T06:10:53.807Z,7.24
2023-05-02T06:12:58.626Z,7.26
2023-05-02T06:15:07.764Z,7.30
2023-05-02T06:17:11.748Z,7.34
2023-05-02T06:19:15.316Z,7.37
2023-05-02T06:21:18.737Z,7.40
2023-05-02T06:23:22.799Z,7.38
2023-05-02T06:25:26.925Z,7.38
2023-05-02T06:27:32.939Z,7.39
2023-05-02T06:29:38.336Z,7.39
2023-05-02T06:31:42.115Z,7.37
2023-05-02T06:33:45.584Z,7.35
2023-05-02T06:35:52.723Z,7.36
2023-05-02T06:37:56.096Z,7.34
2023-05-02T06:39:59.630Z,7.34
2023-05-02T06:42:03.112Z,7.33
2023-05-02T06:44:08.018Z,7.35
2023-05-02T06:46:12.816Z,7.35
2023-05-02T06:48:16.400Z,7.38
2023-05-02T06:50:20.024Z,7.39
2023-05-02T06:52:23.421Z,7.40
2023-05-02T06:54:27.176Z,7.40
2023-05-02T06:56:31.329Z,7.42
2023-05-02T06:58:34.776Z,7.45
2023-05-02T07:00:38.214Z,7.46
2023-05-02T07:02:43.084Z,7.48
2023-05-02T07:04:46.631Z,7.50
2023-05-02T07:06:50.546Z,7.53
2023-05-02T07:08:54.070Z,7.53
2023-05-02T07:10:57.455Z,7.53
2023-05-02T07:13:00.875Z,7.54
2023-05-02T07:15:04.491Z,7.54
2023-05-02T07:17:08.092Z,7.57
2023-05-02T07:19:12.904Z,7.62
2023-05-02T07:21:16.304Z,7.67
2023-05-02T07:23:20.426Z,7.71
2023-05-02T07:25:23.837Z,7.75
2023-05-02T07:27:27.189Z,7.76
2023-05-02T07:29:30.542Z,7.79
2023-05-02T07:31:34.364Z,7.84
2023-05-02T07:33:37.739Z,7.89
2023-05-02T07:35:42.587Z,7.95
2023-05-02T07:37:45.944Z,8.00
2023-05-02T07:39:49.369Z,8.06
2023-05-02T07:41:53.072Z,8.08
2023-05-02T07:43:57.609Z,8.08
2023-05-02T07:46:05.660Z,8.08
2023-05-02T07:48:09.113Z,8.08
2023-05-02T07:50:12.828Z,8.08
2023-05-02T07:52:17.545Z,8.09
2023-05-02T07:54:22.094Z,8.13
2023-05-02T07:56:25.600Z,8.20
2023-05-02T07:58:29.196Z,8.23
2023-05-02T08:00:32.614Z,8.26
2023-05-02T08:02:37.085Z,8.28
2023-05-02T08:04:40.783Z,8.32
2023-05-02T08:06:45.933Z,8.38
2023-05-02T08:08:50.764Z,8.44
2023-05-02T08:10:54.167Z,8.48
2023-05-02T08:12:57.546Z,8.55
2023-05-02T08:15:00.904Z,8.58
2023-05-02T08:17:04.217Z,8.62
2023-05-02T08:19:07.559Z,8.69
2023-05-02T08:21:12.475Z,8.74
2023-05-02T08:23:15.783Z,8.75
2023-05-02T08:25:20.624Z,8.74
2023-05-02T08:27:24.006Z,8.75
2023-05-02T08:29:27.325Z,8.74
2023-05-02T08:31:30.769Z,8.73
2023-05-02T08:33:34.184Z,8.77
2023-05-02T08:35:37.676Z,8.81
2023-05-02T08:37:41.158Z,8.84
2023-05-02T08:39:44.504Z,8.89
2023-05-02T08:41:49.601Z,8.96
2023-05-02T08:43:53.995Z,9.02
2023-05-02T08:46:01.265Z,9.07
2023-05-02T08:48:08.413Z,9.14
2023-05-02T08:50:12.360Z,9.24
2023-05-02T08:52:16.808Z,9.32
2023-05-02T08:54:22.448Z,9.37
2023-05-02T08:56:26.357Z,9.41
2023-05-02T08:58:31.853Z,9.45
2023-05-02T09:00:40.848Z,9.56
2023-05-02T09:02:58.293Z,9.64
2023-05-02T09:05:07.767Z,9.70
2023-05-02T09:07:13.800Z,9.74
2023-05-02T09:09:18.929Z,9.77
2023-05-02T09:11:23.092Z,9.79
2023-05-02T09:13:32.039Z,9.81
2023-05-02T09:15:35.386Z,9.88
2023-05-02T09:17:43.144Z,10.00
2023-05-02T09:19:46.572Z,10.14
2023-05-02T09:21:50.167Z,10.29
2023-05-02T09:23:56.028Z,10.39
2023-05-02T09:26:00.212Z,10.39
2023-05-02T09:28:03.898Z,10.33
2023-05-02T09:30:25.890Z,10.27
2023-05-02T09:32:46.616Z,10.30
2023-05-02T09:35:08.753Z,10.32
2023-05-02T09:37:13.601Z,10.31
2023-05-02T09:39:19.366Z,10.35
2023-05-02T09:41:22.770Z,10.45
2023-05-02T09:43:26.198Z,10.60
2023-05-02T09:45:30.954Z,10.71
2023-05-02T09:47:34.509Z,10.74
2023-05-02T09:49:42.448Z,10.77
2023-05-02T09:51:46.665Z,10.80
2023-05-02T09:53:50.869Z,10.77
2023-05-02T09:56:04.787Z,10.74
2023-05-02T09:58:08.246Z,10.70
2023-05-02T10:00:15.065Z,10.65
2023-05-02T10:02:21.932Z,10.57
2023-05-02T10:04:26.399Z,10.49
2023-05-02T10:06:29.923Z,10.44
2023-05-02T10:08:35.033Z,10.39
2023-05-02T10:10:39.754Z,10.32
2023-05-02T10:12:43.327Z,10.30
2023-05-02T10:14:50.826Z,10.29
2023-05-02T10:17:01.054Z,10.30
2023-05-02T10:19:10.390Z,10.38
2023-05-02T10:21:15.457Z,10.61
2023-05-02T10:23:20.002Z,10.82
2023-05-02T10:25:23.674Z,10.96
2023-05-02T10:27:27.163Z,11.03
2023-05-02T10:29:31.059Z,11.01
2023-05-02T10:31:37.727Z,10.96
2023-05-02T10:33:41.955Z,10.87
2023-05-02T10:35:47.719Z,10.78
2023-05-02T10:37:52.158Z,10.68
2023-05-02T10:39:55.866Z,10.71
2023-05-02T10:42:02.245Z,10.88
2023-05-02T10:44:07.967Z,11.05
2023-05-02T10:46:33.766Z,11.16
2023-05-02T10:48:38.760Z,11.14
2023-05-02T10:50:47.765Z,11.10
2023-05-02T10:52:51.681Z,11.03
2023-05-02T10:55:15.169Z,10.91
2023-05-02T10:57:18.580Z,10.85
2023-05-02T10:59:29.507Z,10.83
2023-05-02T11:01:40.395Z,10.80
2023-05-02T11:03:57.489Z,10.81
2023-05-02T11:06:09.892Z,10.85
2023-05-02T11:08:32.211Z,10.94
2023-05-02T11:10:35.673Z,11.00
2023-05-02T11:12:49.429Z,11.03
2023-05-02T11:14:52.837Z,11.03
2023-05-02T11:17:09.896Z,11.04
2023-05-02T11:19:13.313Z,11.10
2023-05-02T11:21:32.860Z,11.21
2023-05-02T11:23:37.365Z,11.34
2023-05-02T11:25:43.567Z,11.45
2023-05-02T11:27:49.366Z,11.46
2023-05-02T11:29:56.261Z,11.45
2023-05-02T11:31:59.822Z,11.45
2023-05-02T11:34:04.664Z,11.45
2023-05-02T11:36:08.455Z,11.49
2023-05-02T11:38:14.812Z,11.57
2023-05-02T11:40:18.557Z,11.70
2023-05-02T11:42:31.734Z,11.90
2023-05-02T11:44:35.953Z,12.08
2023-05-02T11:46:40.218Z,12.13
2023-05-02T11:48:43.862Z,12.11
2023-05-02T11:50:50.332Z,12.06
2023-05-02T11:52:54.327Z,11.97
2023-05-02T11:54:59.438Z,11.92
2023-05-02T11:57:03.130Z,11.87
2023-05-02T11:59:06.570Z,11.83
2023-05-02T12:01:14.598Z,11.76
2023-05-02T12:03:25.473Z,11.67
2023-05-02T12:05:30.708Z,11.59
2023-05-02T12:07:38.209Z,11.53
2023-05-02T12:09:52.321Z,11.54
2023-05-02T12:11:57.521Z,11.59
2023-05-02T12:14:01.144Z,11.73
2023-05-02T12:16:05.036Z,11.96
2023-05-02T12:18:09.264Z,12.09
2023-05-02T12:20:13.908Z,12.10
2023-05-02T12:22:18.123Z,12.07
2023-05-02T12:24:21.636Z,12.01
2023-05-02T12:26:29.597Z,11.87
2023-05-02T12:28:50.421Z,11.75
2023-05-02T12:30:53.886Z,11.68
2023-05-02T12:32:59.185Z,11.63
2023-05-02T12:35:04.384Z,11.62
2023-05-02T12:37:10.040Z,11.63
2023-05-02T12:39:14.447Z,11.68
2023-05-02T12:41:17.986Z,11.74
2023-05-02T12:43:22.135Z,11.76
2023-05-02T12:45:29.324Z,11.67
2023-05-02T12:47:46.219Z,11.49
2023-05-02T12:49:50.625Z,11.39
2023-05-02T12:51:55.835Z,11.34
2023-05-02T12:53:59.150Z,11.30
2023-05-02T12:56:05.944Z,11.23
2023-05-02T12:58:10.577Z,11.17
2023-05-02T13:00:17.575Z,11.11
2023-05-02T13:02:22.916Z,11.07
2023-05-02T13:04:35.568Z,11.08
2023-05-02T13:06:39.263Z,11.12
2023-05-02T13:08:42.636Z,11.16
2023-05-02T13:10:45.932Z,11.22
2023-05-02T13:12:49.965Z,11.27
2023-05-02T13:14:53.356Z,11.28
2023-05-02T13:16:57.156Z,11.35
2023-05-02T13:19:01.924Z,11.50
2023-05-02T13:21:05.837Z,11.69
2023-05-02T13:23:09.199Z,11.78
2023-05-02T13:25:12.726Z,11.78
2023-05-02T13:27:18.557Z,11.75
2023-05-02T13:29:21.932Z,11.64
2023-05-02T13:31:25.379Z,11.55
2023-05-02T13:33:28.816Z,11.57
2023-05-02T13:35:35.264Z,11.60
2023-05-02T13:37:38.851Z,11.60
2023-05-02T13:39:42.353Z,11.52
2023-05-02T13:41:45.712Z,11.43
2023-05-02T13:43:49.030Z,11.33
2023-05-02T13:45:52.631Z,11.18
2023-05-02T13:47:56.112Z,11.03
2023-05-02T13:49:59.707Z,10.90
2023-05-02T13:52:04.818Z,10.76
2023-05-02T13:54:08.187Z,10.67
2023-05-02T13:56:11.508Z,10.58
2023-05-02T13:58:14.887Z,10.49
2023-05-02T14:00:18.781Z,10.41
2023-05-02T14:02:22.564Z,10.36
2023-05-02T14:04:26.005Z,10.32
2023-05-02T14:06:29.415Z,10.30
2023-05-02T14:08:34.269Z,10.30
2023-05-02T14:10:37.965Z,10.30
2023-05-02T14:12:41.429Z,10.33
2023-05-02T14:14:44.734Z,10.37
2023-05-02T14:16:50.266Z,10.40
2023-05-02T14:18:54.056Z,10.41
2023-05-02T14:21:00.006Z,10.41
2023-05-02T14:23:05.252Z,10.41
2023-05-02T14:25:11.410Z,10.45
2023-05-02T14:27:18.359Z,10.49
2023-05-02T14:29:21.847Z,10.52
2023-05-02T14:31:25.315Z,10.53
2023-05-02T14:33:28.772Z,10.52
2023-05-02T14:35:32.103Z,10.49
2023-05-02T14:37:35.649Z,10.46
2023-05-02T14:39:40.422Z,10.44
2023-05-02T14:41:45.336Z,10.44
2023-05-02T14:43:48.760Z,10.45
2023-05-02T14:45:52.150Z,10.46
2023-05-02T14:47:55.996Z,10.46
2023-05-02T14:49:59.743Z,10.48
2023-05-02T14:52:03.458Z,10.50
2023-05-02T14:54:07.202Z,10.51
2023-05-02T14:56:14.837Z,10.52
2023-05-02T14:58:20.791Z,10.52
2023-05-02T15:00:24.741Z,10.51
2023-05-02T15:02:28.307Z,10.51
2023-05-02T15:04:31.998Z,10.51
2023-05-02T15:06:36.786Z,10.57
2023-05-02T15:08:40.774Z,10.64
2023-05-02T15:10:44.255Z,10.77
2023-05-02T15:12:50.868Z,10.87
2023-05-02T15:14:55.648Z,10.90
2023-05-02T15:16:59.054Z,10.86
2023-05-02T15:19:02.605Z,10.80
2023-05-02T15:21:06.709Z,10.78
2023-05-02T15:23:10.148Z,10.78
2023-05-02T15:25:13.540Z,10.93
2023-05-02T15:27:16.916Z,11.19
2023-05-02T15:29:25.375Z,11.28
2023-05-02T15:31:30.245Z,11.23
2023-05-02T15:33:33.886Z,11.19
2023-05-02T15:35:37.252Z,11.11
2023-05-02T15:37:40.582Z,11.11
2023-05-02T15:39:43.938Z,11.09
2023-05-02T15:41:48.010Z,11.11
2023-05-02T15:43:51.535Z,11.25
2023-05-02T15:45:56.052Z,11.45
2023-05-02T15:48:01.141Z,11.58
2023-05-02T15:50:05.198Z,11.62
2023-05-02T15:52:09.139Z,11.56
2023-05-02T15:54:12.460Z,11.47
2023-05-02T15:56:15.994Z,11.38
2023-05-02T15:58:20.391Z,11.32
2023-05-02T16:00:23.867Z,11.22
2023-05-02T16:02:27.222Z,11.15
2023-05-02T16:04:32.248Z,11.17
2023-05-02T16:06:36.432Z,11.37
2023-05-02T16:08:40.162Z,11.68
2023-05-02T16:10:43.579Z,12.01
2023-05-02T16:12:46.960Z,12.29
2023-05-02T16:14:50.355Z,12.53
2023-05-02T16:16:53.926Z,12.60
2023-05-02T16:18:57.485Z,12.49
2023-05-02T16:21:02.224Z,12.31
2023-05-02T16:23:05.628Z,12.10
2023-05-02T16:25:09.291Z,12.02
2023-05-02T16:27:12.666Z,12.00
2023-05-02T16:29:16.173Z,12.05
2023-05-02T16:31:19.528Z,12.15
2023-05-02T16:33:23.113Z,12.34
2023-05-02T16:35:26.782Z,12.51
2023-05-02T16:37:31.544Z,12.63
2023-05-02T16:39:35.301Z,12.71
2023-05-02T16:41:38.738Z,12.64
2023-05-02T16:43:42.338Z,12.45
2023-05-02T16:45:47.086Z,12.31
2023-05-02T16:47:50.652Z,12.18
2023-05-02T16:49:55.140Z,12.04
2023-05-02T16:51:58.447Z,11.85
2023-05-02T16:54:03.367Z,11.66
2023-05-02T16:56:07.587Z,11.51
2023-05-02T16:58:11.118Z,11.40
2023-05-02T17:00:17.135Z,11.27
2023-05-02T17:02:22.608Z,11.19
2023-05-02T17:04:27.768Z,11.09
2023-05-02T17:06:32.132Z,10.96
2023-05-02T17:08:37.360Z,10.82
2023-05-02T17:10:43.556Z,10.66
2023-05-02T17:12:47.018Z,10.46
2023-05-02T17:14:51.733Z,10.29
2023-05-02T17:16:55.315Z,10.14
2023-05-02T17:18:58.762Z,10.00
2023-05-02T17:21:03.919Z,9.87
2023-05-02T17:23:09.121Z,9.78
2023-05-02T17:25:12.470Z,9.71
2023-05-02T17:27:20.440Z,9.66
2023-05-02T17:29:24.056Z,9.61
2023-05-02T17:31:27.492Z,9.56
2023-05-02T17:33:30.844Z,9.52
2023-05-02T17:35:34.303Z,9.47
2023-05-02T17:37:38.893Z,9.43
2023-05-02T17:39:42.334Z,9.39
2023-05-02T17:41:45.975Z,9.34
2023-05-02T17:43:50.730Z,9.29
2023-05-02T17:45:54.107Z,9.22
2023-05-02T17:47:57.847Z,9.18
2023-05-02T17:50:04.756Z,9.13
2023-05-02T17:52:08.444Z,9.10
2023-05-02T17:54:12.004Z,9.08
2023-05-02T17:56:18.679Z,9.06
2023-05-02T17:58:22.191Z,9.05
2023-05-02T18:00:27.320Z,9.03
2023-05-02T18:02:30.718Z,9.01
2023-05-02T18:04:34.458Z,8.98
2023-05-02T18:06:37.985Z,8.94
2023-05-02T18:08:41.438Z,8.88
2023-05-02T18:10:44.804Z,8.82
2023-05-02T18:12:48.184Z,8.74
2023-05-02T18:14:52.651Z,8.68
2023-05-02T18:16:57.405Z,8.58
2023-05-02T18:19:00.943Z,8.54
2023-05-02T18:21:04.366Z,8.49
2023-05-02T18:23:07.987Z,8.46
2023-05-02T18:25:11.809Z,8.47
2023-05-02T18:27:15.198Z,8.44
2023-05-02T18:29:18.674Z,8.43
2023-05-02T18:31:22.421Z,8.42
2023-05-02T18:33:27.203Z,8.41
2023-05-02T18:35:31.045Z,8.41
2023-05-02T18:37:35.599Z,8.41
2023-05-02T18:39:38.949Z,8.41
2023-05-02T18:41:42.292Z,8.38
2023-05-02T18:43:45.846Z,8.33
2023-05-02T18:45:49.287Z,8.27
2023-05-02T18:47:52.968Z,8.22
2023-05-02T18:49:59.600Z,8.16
2023-05-02T18:52:03.510Z,8.12
2023-05-02T18:54:07.147Z,8.07
2023-05-02T18:56:14.663Z,8.05
2023-05-02T18:58:18.002Z,8.04
2023-05-02T19:00:21.587Z,8.03
2023-05-02T19:02:25.061Z,8.02
2023-05-02T19:04:31.855Z,8.03
2023-05-02T19:06:36.732Z,8.02
2023-05-02T19:08:41.044Z,8.02
2023-05-02T19:10:44.382Z,8.02
2023-05-02T19:12:47.870Z,8.00
2023-05-02T19:14:51.612Z,8.01
2023-05-02T19:16:54.919Z,7.98
2023-05-02T19:18:58.412Z,7.98
2023-05-02T19:21:11.050Z,7.96
2023-05-02T19:23:20.253Z,7.95
2023-05-02T19:25:24.118Z,7.93
2023-05-02T19:27:27.644Z,7.92
2023-05-02T19:29:31.066Z,7.91
2023-05-02T19:31:34.493Z,7.88
2023-05-02T19:33:38.063Z,7.83
2023-05-02T19:35:41.496Z,7.80
2023-05-02T19:37:45.163Z,7.75
2023-05-02T19:39:50.059Z,7.69
2023-05-02T19:41:53.714Z,7.63
2023-05-02T19:43:58.912Z,7.59
2023-05-02T19:46:02.397Z,7.53
2023-05-02T19:48:06.388Z,7.47
2023-05-02T19:50:10.976Z,7.42
2023-05-02T19:52:14.293Z,7.35
2023-05-02T19:54:17.744Z,7.28
2023-05-02T19:56:25.444Z,7.22
2023-05-02T19:58:29.615Z,7.17
2023-05-02T20:00:32.984Z,7.10
2023-05-02T20:02:36.437Z,7.04
2023-05-02T20:04:39.896Z,6.99
2023-05-02T20:06:43.502Z,6.92
2023-05-02T20:08:46.996Z,6.87
2023-05-02T20:10:50.400Z,6.81
2023-05-02T20:12:55.206Z,6.77
2023-05-02T20:14:58.707Z,6.72
2023-05-02T20:17:02.338Z,6.68
2023-05-02T20:19:05.675Z,6.62
2023-05-02T20:21:09.186Z,6.59
2023-05-02T20:23:12.584Z,6.55
2023-05-02T20:25:16.039Z,6.51
2023-05-02T20:27:19.404Z,6.47
2023-05-02T20:29:24.163Z,6.44
2023-05-02T20:31:27.682Z,6.41
2023-05-02T20:33:43.750Z,6.39
2023-05-02T20:35:55.078Z,6.37
2023-05-02T20:37:58.476Z,6.33
2023-05-02T20:40:02.445Z,6.30
2023-05-02T20:42:06.697Z,6.27
2023-05-02T20:44:10.008Z,6.23
2023-05-02T20:46:16.955Z,6.19
2023-05-02T20:48:20.288Z,6.15
2023-05-02T20:50:23.924Z,6.11
2023-05-02T20:52:27.301Z,6.07
2023-05-02T20:54:31.012Z,6.03
2023-05-02T20:56:34.339Z,5.99
2023-05-02T20:58:37.834Z,5.96
2023-05-02T21:00:42.056Z,5.93
2023-05-02T21:02:46.902Z,5.89
2023-05-02T21:04:50.283Z,5.85
2023-05-02T21:06:56.748Z,5.83
2023-05-02T21:09:01.978Z,5.79
2023-05-02T21:11:13.621Z,5.75
2023-05-02T21:13:16.738Z,5.70
2023-05-02T21:15:20.047Z,5.65
2023-05-02T21:17:26.314Z,5.59
2023-05-02T21:19:33.085Z,5.52
2023-05-02T21:21:36.384Z,5.47
2023-05-02T21:23:39.832Z,5.42
2023-05-02T21:25:43.153Z,5.36
2023-05-02T21:27:46.558Z,5.30
2023-05-02T21:29:49.948Z,5.26
2023-05-02T21:31:54.800Z,5.21
2023-05-02T21:33:58.347Z,5.16
2023-05-02T21:36:03.066Z,5.09
2023-05-02T21:38:06.321Z,5.04
2023-05-02T21:40:10.726Z,4.99
2023-05-02T21:42:14.071Z,4.95
2023-05-02T21:44:17.402Z,4.90
2023-05-02T21:46:20.925Z,4.86
2023-05-02T21:48:24.553Z,4.82
2023-05-02T21:50:29.417Z,4.78
2023-05-02T21:52:34.153Z,4.74
2023-05-02T21:54:37.639Z,4.72
2023-05-02T21:56:40.919Z,4.69
2023-05-02T21:58:45.300Z,4.66
2023-05-02T22:00:48.829Z,4.63
2023-05-02T22:02:52.219Z,4.60
2023-05-02T22:04:57.888Z,4.57
2023-05-02T22:07:01.394Z,4.55
2023-05-02T22:09:08.377Z,4.52
2023-05-02T22:11:11.730Z,4.51
2023-05-02T22:13:16.774Z,4.51
2023-05-02T22:15:20.142Z,4.49
2023-05-02T22:17:23.487Z,4.47
2023-05-02T22:19:26.917Z,4.46
2023-05-02T22:21:30.542Z,4.44
2023-05-02T22:23:34.271Z,4.42
2023-05-02T22:25:41.644Z,4.41
2023-05-02T22:27:45.085Z,4.40
2023-05-02T22:29:48.474Z,4.39
2023-05-02T22:31:52.316Z,4.37
2023-05-02T22:33:55.760Z,4.37
2023-05-02T22:35:59.214Z,4.35
2023-05-02T22:38:02.822Z,4.33
2023-05-02T22:40:08.401Z,4.30
2023-05-02T22:42:13.162Z,4.28
2023-05-02T22:44:16.555Z,4.25
2023-05-02T22:46:19.986Z,4.22
2023-05-02T22:48:23.329Z,4.20
2023-05-02T22:50:27.493Z,4.18
2023-05-02T22:52:30.881Z,4.17
2023-05-02T22:54:34.213Z,4.15
2023-05-02T22:56:37.723Z,4.15
2023-05-02T22:58:42.611Z,4.11
2023-05-02T23:00:46.288Z,4.11
2023-05-02T23:02:49.873Z,4.10
2023-05-02T23:04:53.259Z,4.09
2023-05-02T23:06:56.620Z,4.08
2023-05-02T23:08:59.955Z,4.07
2023-05-02T23:11:03.329Z,4.05
2023-05-02T23:13:06.779Z,4.03
2023-05-02T23:15:12.434Z,4.00
2023-05-02T23:17:15.853Z,3.97
2023-05-02T23:19:19.214Z,3.95
2023-05-02T23:21:22.569Z,3.92
2023-05-02T23:23:26.493Z,3.90
2023-05-02T23:25:30.941Z,3.88
2023-05-02T23:27:34.282Z,3.85
2023-05-02T23:29:37.689Z,3.84
2023-05-02T23:31:42.644Z,3.80
2023-05-02T23:33:52.016Z,3.77
2023-05-02T23:35:55.428Z,3.72
2023-05-02T23:38:00.964Z,3.70
2023-05-02T23:40:04.906Z,3.68
2023-05-02T23:42:09.547Z,3.66
2023-05-02T23:44:12.948Z,3.64
2023-05-02T23:46:16.404Z,3.64
2023-05-02T23:48:21.300Z,3.63
2023-05-02T23:50:24.664Z,3.62
2023-05-02T23:52:28.012Z,3.59
2023-05-02T23:54:32.677Z,3.58
2023-05-02T23:56:37.132Z,3.56
2023-05-02T23:58:40.553Z,3.56
